sensor_id;sensor_type;location;lat;lon;timestamp;pressure;altitude;pressure_sealevel;temperature;humidity
20710;BME280;10516;51.518;9.864;2023-08-21T00:01:01;99488.44;;;22.44;73.69
20710;BME280;10516;51.518;9.864;2023-08-21T00:03:26;99496.84;;;22.33;73.20
20710;BME280;10516;51.518;9.864;2023-08-21T00:05:52;99488.28;;;21.69;74.88
20710;BME280;10516;51.518;9.864;2023-08-21T00:08:17;99490.75;;;21.29;75.94
20710;BME280;10516;51.518;9.864;2023-08-21T00:10:42;99487.50;;;21.41;76.42
20710;BME280;10516;51.518;9.864;2023-08-21T00:13:08;99478.38;;;21.37;76.22
20710;BME280;10516;51.518;9.864;2023-08-21T00:15:33;99465.94;;;21.58;74.90
20710;BME280;10516;51.518;9.864;2023-08-21T00:17:59;99477.63;;;21.58;74.99
20710;BME280;10516;51.518;9.864;2023-08-21T00:20:26;99474.56;;;21.74;74.79
20710;BME280;10516;51.518;9.864;2023-08-21T00:22:51;99477.84;;;21.62;74.79
20710;BME280;10516;51.518;9.864;2023-08-21T00:25:16;99473.38;;;21.80;74.05
20710;BME280;10516;51.518;9.864;2023-08-21T00:27:42;99482.50;;;22.19;73.71
20710;BME280;10516;51.518;9.864;2023-08-21T00:30:07;99475.19;;;21.84;73.92
20710;BME280;10516;51.518;9.864;2023-08-21T00:32:33;99472.63;;;22.23;73.64
20710;BME280;10516;51.518;9.864;2023-08-21T00:34:58;99462.28;;;21.76;75.30
20710;BME280;10516;51.518;9.864;2023-08-21T00:37:24;99471.19;;;21.68;74.93
20710;BME280;10516;51.518;9.864;2023-08-21T00:39:49;99472.94;;;21.23;76.23
20710;BME280;10516;51.518;9.864;2023-08-21T00:42:14;99473.16;;;21.90;75.46
20710;BME280;10516;51.518;9.864;2023-08-21T00:44:40;99473.84;;;21.95;73.44
20710;BME280;10516;51.518;9.864;2023-08-21T00:47:05;99467.03;;;21.08;76.00
20710;BME280;10516;51.518;9.864;2023-08-21T00:49:31;99472.91;;;22.00;75.04
20710;BME280;10516;51.518;9.864;2023-08-21T00:51:58;99464.81;;;21.86;73.45
20710;BME280;10516;51.518;9.864;2023-08-21T00:54:24;99459.88;;;21.75;74.90
20710;BME280;10516;51.518;9.864;2023-08-21T00:56:49;99467.16;;;21.65;74.59
20710;BME280;10516;51.518;9.864;2023-08-21T00:59:18;99463.38;;;21.53;75.38
20710;BME280;10516;51.518;9.864;2023-08-21T01:01:44;99464.69;;;21.78;74.17
20710;BME280;10516;51.518;9.864;2023-08-21T01:04:10;99463.78;;;21.82;74.85
20710;BME280;10516;51.518;9.864;2023-08-21T01:06:35;99457.84;;;21.94;73.82
20710;BME280;10516;51.518;9.864;2023-08-21T01:09:26;99449.50;;;21.41;75.41
20710;BME280;10516;51.518;9.864;2023-08-21T01:12:00;99448.56;;;20.77;77.84
20710;BME280;10516;51.518;9.864;2023-08-21T01:15:07;99453.06;;;21.14;76.60
20710;BME280;10516;51.518;9.864;2023-08-21T01:17:36;99453.50;;;22.15;73.91
20710;BME280;10516;51.518;9.864;2023-08-21T01:20:03;99459.91;;;22.10;73.66
20710;BME280;10516;51.518;9.864;2023-08-21T01:22:40;99454.63;;;21.78;73.77
20710;BME280;10516;51.518;9.864;2023-08-21T01:25:06;99453.28;;;22.03;73.28
20710;BME280;10516;51.518;9.864;2023-08-21T01:27:33;99454.75;;;21.24;75.95
20710;BME280;10516;51.518;9.864;2023-08-21T01:30:00;99445.50;;;21.25;76.63
20710;BME280;10516;51.518;9.864;2023-08-21T01:34:58;99444.69;;;20.83;77.16
20710;BME280;10516;51.518;9.864;2023-08-21T01:37:24;99437.97;;;20.95;76.35
20710;BME280;10516;51.518;9.864;2023-08-21T01:39:50;99455.03;;;20.81;77.19
20710;BME280;10516;51.518;9.864;2023-08-21T01:42:15;99452.31;;;20.81;76.54
20710;BME280;10516;51.518;9.864;2023-08-21T01:44:41;99456.72;;;20.77;77.17
20710;BME280;10516;51.518;9.864;2023-08-21T01:47:07;99449.91;;;20.93;76.43
20710;BME280;10516;51.518;9.864;2023-08-21T01:49:32;99452.44;;;21.31;75.22
20710;BME280;10516;51.518;9.864;2023-08-21T01:51:57;99457.63;;;21.41;75.68
20710;BME280;10516;51.518;9.864;2023-08-21T01:54:23;99454.22;;;22.20;72.80
20710;BME280;10516;51.518;9.864;2023-08-21T01:56:48;99462.09;;;22.53;71.82
20710;BME280;10516;51.518;9.864;2023-08-21T01:59:15;99467.66;;;22.70;71.07
20710;BME280;10516;51.518;9.864;2023-08-21T02:01:41;99461.53;;;22.64;71.38
20710;BME280;10516;51.518;9.864;2023-08-21T02:04:06;99455.69;;;22.04;72.08
20710;BME280;10516;51.518;9.864;2023-08-21T02:06:32;99454.81;;;21.46;73.08
20710;BME280;10516;51.518;9.864;2023-08-21T02:08:57;99453.75;;;21.33;73.92
20710;BME280;10516;51.518;9.864;2023-08-21T02:11:23;99458.97;;;21.30;74.39
20710;BME280;10516;51.518;9.864;2023-08-21T02:13:49;99461.31;;;22.08;72.89
20710;BME280;10516;51.518;9.864;2023-08-21T02:16:14;99457.03;;;22.15;71.43
20710;BME280;10516;51.518;9.864;2023-08-21T02:18:39;99456.72;;;22.39;71.80
20710;BME280;10516;51.518;9.864;2023-08-21T02:21:05;99460.25;;;22.39;71.56
20710;BME280;10516;51.518;9.864;2023-08-21T02:23:30;99455.97;;;22.47;71.36
20710;BME280;10516;51.518;9.864;2023-08-21T02:25:55;99456.16;;;22.06;72.31
20710;BME280;10516;51.518;9.864;2023-08-21T02:28:21;99458.47;;;22.35;71.56
20710;BME280;10516;51.518;9.864;2023-08-21T02:30:46;99453.94;;;22.08;71.11
20710;BME280;10516;51.518;9.864;2023-08-21T02:33:11;99436.72;;;21.91;72.50
20710;BME280;10516;51.518;9.864;2023-08-21T02:35:37;99443.00;;;22.00;72.15
20710;BME280;10516;51.518;9.864;2023-08-21T02:38:02;99445.53;;;22.41;71.23
20710;BME280;10516;51.518;9.864;2023-08-21T02:40:28;99442.28;;;22.30;71.61
20710;BME280;10516;51.518;9.864;2023-08-21T02:42:53;99443.59;;;22.10;71.64
20710;BME280;10516;51.518;9.864;2023-08-21T02:45:18;99444.69;;;22.09;72.34
20710;BME280;10516;51.518;9.864;2023-08-21T02:47:45;99438.88;;;21.67;72.21
20710;BME280;10516;51.518;9.864;2023-08-21T02:50:10;99443.91;;;21.73;73.00
20710;BME280;10516;51.518;9.864;2023-08-21T02:52:36;99448.66;;;21.54;73.86
20710;BME280;10516;51.518;9.864;2023-08-21T02:55:02;99451.03;;;21.06;73.62
20710;BME280;10516;51.518;9.864;2023-08-21T02:57:28;99449.63;;;21.85;73.12
20710;BME280;10516;51.518;9.864;2023-08-21T02:59:54;99442.38;;;21.67;73.01
20710;BME280;10516;51.518;9.864;2023-08-21T03:02:20;99442.47;;;22.11;71.75
20710;BME280;10516;51.518;9.864;2023-08-21T03:04:46;99444.38;;;22.33;70.89
20710;BME280;10516;51.518;9.864;2023-08-21T03:07:12;99446.47;;;22.36;70.45
20710;BME280;10516;51.518;9.864;2023-08-21T03:09:38;99435.72;;;22.31;70.81
20710;BME280;10516;51.518;9.864;2023-08-21T03:12:04;99436.09;;;22.16;71.36
20710;BME280;10516;51.518;9.864;2023-08-21T03:14:29;99439.19;;;22.23;70.77
20710;BME280;10516;51.518;9.864;2023-08-21T03:16:55;99440.34;;;22.30;70.33
20710;BME280;10516;51.518;9.864;2023-08-21T03:19:20;99450.69;;;22.20;70.57
20710;BME280;10516;51.518;9.864;2023-08-21T03:21:45;99444.31;;;22.24;70.75
20710;BME280;10516;51.518;9.864;2023-08-21T03:24:11;99445.72;;;22.22;70.45
20710;BME280;10516;51.518;9.864;2023-08-21T03:26:36;99446.47;;;22.14;70.96
20710;BME280;10516;51.518;9.864;2023-08-21T03:29:01;99430.72;;;22.02;71.35
20710;BME280;10516;51.518;9.864;2023-08-21T03:31:27;99431.78;;;21.93;71.06
20710;BME280;10516;51.518;9.864;2023-08-21T03:33:53;99431.53;;;22.03;70.89
20710;BME280;10516;51.518;9.864;2023-08-21T03:36:18;99434.41;;;22.06;70.83
20710;BME280;10516;51.518;9.864;2023-08-21T03:38:44;99427.06;;;22.07;70.59
20710;BME280;10516;51.518;9.864;2023-08-21T03:41:10;99434.13;;;22.08;70.44
20710;BME280;10516;51.518;9.864;2023-08-21T03:43:36;99431.03;;;22.01;70.68
20710;BME280;10516;51.518;9.864;2023-08-21T03:46:01;99430.97;;;21.92;71.03
20710;BME280;10516;51.518;9.864;2023-08-21T03:48:27;99433.31;;;21.85;71.11
20710;BME280;10516;51.518;9.864;2023-08-21T03:50:52;99428.25;;;21.92;70.71
20710;BME280;10516;51.518;9.864;2023-08-21T03:53:18;99429.19;;;21.88;70.76
20710;BME280;10516;51.518;9.864;2023-08-21T03:55:43;99428.25;;;21.92;70.61
20710;BME280;10516;51.518;9.864;2023-08-21T03:58:09;99427.38;;;21.83;71.01
20710;BME280;10516;51.518;9.864;2023-08-21T04:00:34;99436.34;;;21.70;71.27
20710;BME280;10516;51.518;9.864;2023-08-21T04:02:59;99430.03;;;21.61;71.49
20710;BME280;10516;51.518;9.864;2023-08-21T04:05:27;99429.28;;;21.69;70.80
20710;BME280;10516;51.518;9.864;2023-08-21T04:07:53;99419.75;;;21.58;71.06
20710;BME280;10516;51.518;9.864;2023-08-21T04:10:18;99436.03;;;21.72;71.02
20710;BME280;10516;51.518;9.864;2023-08-21T04:12:44;99433.03;;;21.73;70.73
20710;BME280;10516;51.518;9.864;2023-08-21T04:15:09;99442.88;;;21.69;70.85
20710;BME280;10516;51.518;9.864;2023-08-21T04:17:35;99444.00;;;21.68;70.97
20710;BME280;10516;51.518;9.864;2023-08-21T04:20:00;99445.03;;;21.58;70.97
20710;BME280;10516;51.518;9.864;2023-08-21T04:22:26;99445.03;;;21.58;70.61
20710;BME280;10516;51.518;9.864;2023-08-21T04:24:51;99449.38;;;21.46;71.37
20710;BME280;10516;51.518;9.864;2023-08-21T04:27:16;99448.06;;;21.57;70.79
20710;BME280;10516;51.518;9.864;2023-08-21T04:29:42;99460.66;;;21.53;70.88
20710;BME280;10516;51.518;9.864;2023-08-21T04:32:07;99453.03;;;21.01;72.33
20710;BME280;10516;51.518;9.864;2023-08-21T04:34:33;99463.31;;;20.44;73.77
20710;BME280;10516;51.518;9.864;2023-08-21T04:36:58;99463.81;;;20.46;74.11
20710;BME280;10516;51.518;9.864;2023-08-21T04:39:24;99453.13;;;20.96;72.95
20710;BME280;10516;51.518;9.864;2023-08-21T04:41:49;99467.41;;;21.28;71.83
20710;BME280;10516;51.518;9.864;2023-08-21T04:44:14;99465.09;;;21.49;71.02
20710;BME280;10516;51.518;9.864;2023-08-21T04:46:40;99471.84;;;21.38;71.35
20710;BME280;10516;51.518;9.864;2023-08-21T04:49:05;99481.72;;;21.34;71.37
20710;BME280;10516;51.518;9.864;2023-08-21T04:51:31;99474.84;;;21.36;71.01
20710;BME280;10516;51.518;9.864;2023-08-21T04:53:56;99475.38;;;21.25;71.42
20710;BME280;10516;51.518;9.864;2023-08-21T04:56:21;99468.72;;;21.04;72.58
20710;BME280;10516;51.518;9.864;2023-08-21T04:58:47;99476.16;;;20.98;72.51
20710;BME280;10516;51.518;9.864;2023-08-21T05:01:12;99474.16;;;21.04;72.68
20710;BME280;10516;51.518;9.864;2023-08-21T05:03:37;99474.66;;;20.92;72.96
20710;BME280;10516;51.518;9.864;2023-08-21T05:06:03;99469.16;;;20.65;74.15
20710;BME280;10516;51.518;9.864;2023-08-21T05:08:28;99480.41;;;20.58;74.45
20710;BME280;10516;51.518;9.864;2023-08-21T05:10:57;99475.88;;;20.22;76.60
20710;BME280;10516;51.518;9.864;2023-08-21T05:13:23;99484.09;;;19.98;78.07
20710;BME280;10516;51.518;9.864;2023-08-21T05:15:56;99487.53;;;19.85;78.31
20710;BME280;10516;51.518;9.864;2023-08-21T05:18:23;99486.28;;;19.77;78.53
20710;BME280;10516;51.518;9.864;2023-08-21T05:20:49;99472.50;;;19.92;78.84
20710;BME280;10516;51.518;9.864;2023-08-21T05:23:15;99474.13;;;19.93;79.49
20710;BME280;10516;51.518;9.864;2023-08-21T05:25:40;99482.84;;;19.72;79.70
20710;BME280;10516;51.518;9.864;2023-08-21T05:28:06;99485.53;;;19.53;79.79
20710;BME280;10516;51.518;9.864;2023-08-21T05:30:32;99482.59;;;19.50;79.74
20710;BME280;10516;51.518;9.864;2023-08-21T05:32:58;99474.28;;;19.46;79.67
20710;BME280;10516;51.518;9.864;2023-08-21T05:35:23;99476.63;;;19.71;79.31
20710;BME280;10516;51.518;9.864;2023-08-21T05:37:49;99476.91;;;20.26;76.99
20710;BME280;10516;51.518;9.864;2023-08-21T05:40:14;99482.72;;;20.65;75.94
20710;BME280;10516;51.518;9.864;2023-08-21T05:42:39;99484.63;;;21.24;73.52
20710;BME280;10516;51.518;9.864;2023-08-21T05:45:05;99490.44;;;21.31;73.40
20710;BME280;10516;51.518;9.864;2023-08-21T05:47:31;99493.75;;;21.41;73.26
20710;BME280;10516;51.518;9.864;2023-08-21T05:49:56;99492.97;;;21.27;73.52
20710;BME280;10516;51.518;9.864;2023-08-21T05:52:22;99492.34;;;21.57;72.18
20710;BME280;10516;51.518;9.864;2023-08-21T05:54:48;99490.56;;;20.53;75.61
20710;BME280;10516;51.518;9.864;2023-08-21T05:57:13;99498.53;;;20.31;77.31
20710;BME280;10516;51.518;9.864;2023-08-21T05:59:46;99493.72;;;20.41;76.55
20710;BME280;10516;51.518;9.864;2023-08-21T06:02:12;99494.06;;;20.02;76.89
20710;BME280;10516;51.518;9.864;2023-08-21T06:04:40;99495.50;;;20.32;77.21
20710;BME280;10516;51.518;9.864;2023-08-21T06:07:06;99501.13;;;20.68;75.88
20710;BME280;10516;51.518;9.864;2023-08-21T06:09:32;99496.53;;;19.99;77.02
20710;BME280;10516;51.518;9.864;2023-08-21T06:11:59;99496.66;;;19.70;77.68
20710;BME280;10516;51.518;9.864;2023-08-21T06:14:26;99505.75;;;19.79;78.74
20710;BME280;10516;51.518;9.864;2023-08-21T06:17:04;99502.91;;;19.71;78.78
20710;BME280;10516;51.518;9.864;2023-08-21T06:19:30;99488.53;;;19.70;79.06
20710;BME280;10516;51.518;9.864;2023-08-21T06:21:55;99511.94;;;19.42;79.36
20710;BME280;10516;51.518;9.864;2023-08-21T06:24:22;99504.94;;;19.60;79.67
20710;BME280;10516;51.518;9.864;2023-08-21T06:26:47;99511.38;;;19.64;80.29
20710;BME280;10516;51.518;9.864;2023-08-21T06:29:12;99518.03;;;19.53;80.67
20710;BME280;10516;51.518;9.864;2023-08-21T06:31:38;99511.75;;;19.58;80.20
20710;BME280;10516;51.518;9.864;2023-08-21T06:34:03;99513.53;;;19.67;80.71
20710;BME280;10516;51.518;9.864;2023-08-21T06:36:28;99503.34;;;19.78;80.24
20710;BME280;10516;51.518;9.864;2023-08-21T06:38:55;99523.00;;;20.07;79.86
20710;BME280;10516;51.518;9.864;2023-08-21T06:41:20;99518.63;;;20.75;75.88
20710;BME280;10516;51.518;9.864;2023-08-21T06:43:46;99516.94;;;20.47;77.76
20710;BME280;10516;51.518;9.864;2023-08-21T06:46:12;99513.59;;;20.37;77.60
20710;BME280;10516;51.518;9.864;2023-08-21T06:48:39;99508.69;;;20.39;77.17
20710;BME280;10516;51.518;9.864;2023-08-21T06:51:06;99516.69;;;20.30;77.17
20710;BME280;10516;51.518;9.864;2023-08-21T06:53:32;99514.31;;;20.42;76.67
20710;BME280;10516;51.518;9.864;2023-08-21T06:55:57;99519.59;;;20.15;77.40
20710;BME280;10516;51.518;9.864;2023-08-21T06:58:23;99506.78;;;20.21;75.80
20710;BME280;10516;51.518;9.864;2023-08-21T07:00:48;99515.16;;;20.56;75.49
20710;BME280;10516;51.518;9.864;2023-08-21T07:03:14;99513.03;;;20.85;75.90
20710;BME280;10516;51.518;9.864;2023-08-21T07:05:39;99505.38;;;20.42;75.86
20710;BME280;10516;51.518;9.864;2023-08-21T07:08:05;99510.81;;;20.23;76.37
20710;BME280;10516;51.518;9.864;2023-08-21T07:10:35;99513.97;;;20.30;76.89
20710;BME280;10516;51.518;9.864;2023-08-21T07:13:01;99515.66;;;20.58;74.69
20710;BME280;10516;51.518;9.864;2023-08-21T07:15:26;99520.78;;;20.60;76.03
20710;BME280;10516;51.518;9.864;2023-08-21T07:17:52;99524.22;;;20.65;73.74
20710;BME280;10516;51.518;9.864;2023-08-21T07:20:17;99521.56;;;20.79;74.94
20710;BME280;10516;51.518;9.864;2023-08-21T07:22:43;99516.06;;;20.52;73.12
20710;BME280;10516;51.518;9.864;2023-08-21T07:25:08;99518.34;;;20.90;72.13
20710;BME280;10516;51.518;9.864;2023-08-21T07:27:33;99524.81;;;20.62;72.31
20710;BME280;10516;51.518;9.864;2023-08-21T07:29:59;99530.38;;;20.39;73.35
20710;BME280;10516;51.518;9.864;2023-08-21T07:32:24;99521.94;;;21.05;74.67
20710;BME280;10516;51.518;9.864;2023-08-21T07:34:53;99517.16;;;21.78;72.46
20710;BME280;10516;51.518;9.864;2023-08-21T07:37:21;99517.69;;;21.26;71.78
20710;BME280;10516;51.518;9.864;2023-08-21T07:39:46;99525.44;;;20.73;72.83
20710;BME280;10516;51.518;9.864;2023-08-21T07:42:12;99514.78;;;21.09;73.62
20710;BME280;10516;51.518;9.864;2023-08-21T07:44:39;99520.31;;;21.17;72.43
20710;BME280;10516;51.518;9.864;2023-08-21T07:47:04;99520.09;;;21.41;73.28
20710;BME280;10516;51.518;9.864;2023-08-21T07:49:30;99514.88;;;21.17;71.86
20710;BME280;10516;51.518;9.864;2023-08-21T07:51:56;99521.09;;;21.45;72.22
20710;BME280;10516;51.518;9.864;2023-08-21T07:54:21;99520.69;;;21.51;73.06
20710;BME280;10516;51.518;9.864;2023-08-21T07:56:47;99519.91;;;21.24;72.57
20710;BME280;10516;51.518;9.864;2023-08-21T07:59:12;99515.06;;;21.61;71.21
20710;BME280;10516;51.518;9.864;2023-08-21T08:01:38;99522.00;;;21.67;71.27
20710;BME280;10516;51.518;9.864;2023-08-21T08:04:04;99517.41;;;21.41;73.39
20710;BME280;10516;51.518;9.864;2023-08-21T08:06:30;99518.50;;;22.38;70.64
20710;BME280;10516;51.518;9.864;2023-08-21T08:08:55;99510.66;;;22.90;68.89
20710;BME280;10516;51.518;9.864;2023-08-21T08:11:20;99512.69;;;22.54;70.66
20710;BME280;10516;51.518;9.864;2023-08-21T08:13:46;99509.28;;;22.26;72.14
20710;BME280;10516;51.518;9.864;2023-08-21T08:16:11;99519.13;;;22.80;70.31
20710;BME280;10516;51.518;9.864;2023-08-21T08:18:37;99517.78;;;22.69;70.63
20710;BME280;10516;51.518;9.864;2023-08-21T08:21:02;99511.59;;;23.16;69.11
20710;BME280;10516;51.518;9.864;2023-08-21T08:23:28;99498.81;;;22.42;70.96
20710;BME280;10516;51.518;9.864;2023-08-21T08:25:53;99516.53;;;22.75;70.89
20710;BME280;10516;51.518;9.864;2023-08-21T08:28:18;99506.13;;;23.16;69.67
20710;BME280;10516;51.518;9.864;2023-08-21T08:30:45;99511.72;;;23.50;68.38
20710;BME280;10516;51.518;9.864;2023-08-21T08:33:10;99514.88;;;23.35;69.71
20710;BME280;10516;51.518;9.864;2023-08-21T08:35:36;99512.41;;;23.17;69.73
20710;BME280;10516;51.518;9.864;2023-08-21T08:38:01;99512.53;;;23.11;69.81
20710;BME280;10516;51.518;9.864;2023-08-21T08:40:27;99503.06;;;23.48;68.39
20710;BME280;10516;51.518;9.864;2023-08-21T08:42:53;99514.78;;;23.49;69.23
20710;BME280;10516;51.518;9.864;2023-08-21T08:45:31;99503.13;;;23.74;68.18
20710;BME280;10516;51.518;9.864;2023-08-21T08:48:00;99506.78;;;23.61;69.51
20710;BME280;10516;51.518;9.864;2023-08-21T08:50:31;99504.25;;;23.73;69.22
20710;BME280;10516;51.518;9.864;2023-08-21T08:53:01;99508.97;;;23.02;69.75
20710;BME280;10516;51.518;9.864;2023-08-21T08:55:26;99509.34;;;23.18;69.44
20710;BME280;10516;51.518;9.864;2023-08-21T08:57:53;99500.53;;;23.52;68.27
20710;BME280;10516;51.518;9.864;2023-08-21T09:03:01;99500.72;;;23.81;68.54
20710;BME280;10516;51.518;9.864;2023-08-21T09:05:26;99501.47;;;23.47;68.98
20710;BME280;10516;51.518;9.864;2023-08-21T09:08:24;99506.34;;;23.67;69.25
20710;BME280;10516;51.518;9.864;2023-08-21T09:10:50;99510.19;;;23.83;68.84
20710;BME280;10516;51.518;9.864;2023-08-21T09:13:17;99505.19;;;23.68;69.38
20710;BME280;10516;51.518;9.864;2023-08-21T09:15:44;99510.31;;;23.70;69.25
20710;BME280;10516;51.518;9.864;2023-08-21T09:18:10;99499.75;;;23.77;67.82
20710;BME280;10516;51.518;9.864;2023-08-21T09:20:36;99495.78;;;24.26;66.58
20710;BME280;10516;51.518;9.864;2023-08-21T09:23:02;99512.41;;;23.73;68.72
20710;BME280;10516;51.518;9.864;2023-08-21T09:25:34;99511.03;;;24.10;68.44
20710;BME280;10516;51.518;9.864;2023-08-21T09:27:59;99501.25;;;24.26;67.32
20710;BME280;10516;51.518;9.864;2023-08-21T09:30:24;99506.34;;;23.67;67.83
20710;BME280;10516;51.518;9.864;2023-08-21T09:32:59;99500.91;;;23.28;68.22
20710;BME280;10516;51.518;9.864;2023-08-21T09:35:32;99493.53;;;23.29;68.86
20710;BME280;10516;51.518;9.864;2023-08-21T09:37:59;99500.03;;;23.50;68.06
20710;BME280;10516;51.518;9.864;2023-08-21T09:40:24;99505.03;;;23.56;68.72
20710;BME280;10516;51.518;9.864;2023-08-21T09:42:53;99495.56;;;23.54;68.39
20710;BME280;10516;51.518;9.864;2023-08-21T09:45:23;99495.25;;;23.90;67.86
20710;BME280;10516;51.518;9.864;2023-08-21T09:47:54;99503.75;;;23.79;69.22
20710;BME280;10516;51.518;9.864;2023-08-21T09:50:19;99501.84;;;23.63;68.60
20710;BME280;10516;51.518;9.864;2023-08-21T09:52:45;99492.91;;;24.14;68.48
20710;BME280;10516;51.518;9.864;2023-08-21T09:55:13;99479.06;;;24.44;68.62
20710;BME280;10516;51.518;9.864;2023-08-21T09:57:39;99483.09;;;24.38;67.99
20710;BME280;10516;51.518;9.864;2023-08-21T10:00:05;99476.59;;;24.69;67.58
20710;BME280;10516;51.518;9.864;2023-08-21T10:02:42;99481.78;;;24.44;67.88
20710;BME280;10516;51.518;9.864;2023-08-21T10:05:09;99472.31;;;24.50;66.51
20710;BME280;10516;51.518;9.864;2023-08-21T10:07:35;99472.66;;;24.32;65.89
20710;BME280;10516;51.518;9.864;2023-08-21T10:10:01;99468.06;;;25.16;66.09
20710;BME280;10516;51.518;9.864;2023-08-21T10:12:27;99474.97;;;25.22;65.28
20710;BME280;10516;51.518;9.864;2023-08-21T10:14:52;99478.13;;;25.62;64.53
20710;BME280;10516;51.518;9.864;2023-08-21T10:17:18;99474.63;;;25.82;63.71
20710;BME280;10516;51.518;9.864;2023-08-21T10:19:51;99463.13;;;25.48;64.37
20710;BME280;10516;51.518;9.864;2023-08-21T10:22:38;99467.47;;;25.69;64.19
20710;BME280;10516;51.518;9.864;2023-08-21T10:25:46;99459.31;;;25.31;65.19
20710;BME280;10516;51.518;9.864;2023-08-21T10:28:06;99463.75;;;25.53;62.78
20710;BME280;10516;51.518;9.864;2023-08-21T10:30:31;99464.41;;;25.71;64.26
20710;BME280;10516;51.518;9.864;2023-08-21T10:32:58;99462.16;;;25.14;64.20
20710;BME280;10516;51.518;9.864;2023-08-21T10:35:28;99460.22;;;26.15;63.72
20710;BME280;10516;51.518;9.864;2023-08-21T10:38:16;99456.53;;;25.90;64.00
20710;BME280;10516;51.518;9.864;2023-08-21T10:41:06;99461.00;;;26.15;63.02
20710;BME280;10516;51.518;9.864;2023-08-21T10:43:43;99465.94;;;25.30;64.26
20710;BME280;10516;51.518;9.864;2023-08-21T10:46:09;99457.06;;;26.57;62.81
20710;BME280;10516;51.518;9.864;2023-08-21T10:48:35;99451.56;;;26.57;63.25
20710;BME280;10516;51.518;9.864;2023-08-21T10:51:02;99464.09;;;26.14;61.73
20710;BME280;10516;51.518;9.864;2023-08-21T10:53:31;99468.09;;;26.49;62.99
20710;BME280;10516;51.518;9.864;2023-08-21T10:56:01;99465.06;;;26.62;61.71
20710;BME280;10516;51.518;9.864;2023-08-21T10:58:27;99462.31;;;26.62;61.11
20710;BME280;10516;51.518;9.864;2023-08-21T11:01:01;99462.84;;;27.01;61.62
20710;BME280;10516;51.518;9.864;2023-08-21T11:03:26;99460.59;;;27.51;60.18
20710;BME280;10516;51.518;9.864;2023-08-21T11:08:28;99463.41;;;26.94;59.79
20710;BME280;10516;51.518;9.864;2023-08-21T11:10:53;99458.03;;;27.22;60.96
20710;BME280;10516;51.518;9.864;2023-08-21T11:13:19;99450.41;;;26.46;60.43
20710;BME280;10516;51.518;9.864;2023-08-21T11:15:45;99453.88;;;26.67;59.75
20710;BME280;10516;51.518;9.864;2023-08-21T11:18:10;99453.72;;;27.09;60.64
20710;BME280;10516;51.518;9.864;2023-08-21T11:20:36;99449.09;;;26.64;60.50
20710;BME280;10516;51.518;9.864;2023-08-21T11:23:06;99456.22;;;27.14;59.94
20710;BME280;10516;51.518;9.864;2023-08-21T11:25:37;99451.69;;;27.42;58.03
20710;BME280;10516;51.518;9.864;2023-08-21T11:28:03;99449.78;;;26.73;59.18
20710;BME280;10516;51.518;9.864;2023-08-21T11:30:31;99451.63;;;27.66;58.59
20710;BME280;10516;51.518;9.864;2023-08-21T11:33:08;99445.09;;;26.62;59.37
20710;BME280;10516;51.518;9.864;2023-08-21T11:35:34;99451.94;;;27.77;58.02
20710;BME280;10516;51.518;9.864;2023-08-21T11:38:01;99458.03;;;27.22;58.03
20710;BME280;10516;51.518;9.864;2023-08-21T11:40:28;99453.59;;;27.54;58.82
20710;BME280;10516;51.518;9.864;2023-08-21T11:43:00;99458.25;;;27.77;56.81
20710;BME280;10516;51.518;9.864;2023-08-21T11:45:25;99454.63;;;27.37;56.77
20710;BME280;10516;51.518;9.864;2023-08-21T11:47:51;99438.00;;;28.22;56.99
20710;BME280;10516;51.518;9.864;2023-08-21T11:50:20;99440.63;;;28.46;57.17
20710;BME280;10516;51.518;9.864;2023-08-21T11:52:46;99440.75;;;27.82;57.01
20710;BME280;10516;51.518;9.864;2023-08-21T11:55:11;99430.31;;;28.43;56.80
20710;BME280;10516;51.518;9.864;2023-08-21T11:58:19;99413.88;;;27.75;56.63
20710;BME280;10516;51.518;9.864;2023-08-21T12:00:50;99432.81;;;27.92;56.46
20710;BME280;10516;51.518;9.864;2023-08-21T12:03:17;99427.00;;;28.65;55.71
20710;BME280;10516;51.518;9.864;2023-08-21T12:05:43;99427.00;;;28.65;55.88
20710;BME280;10516;51.518;9.864;2023-08-21T12:08:09;99428.75;;;28.14;56.30
20710;BME280;10516;51.518;9.864;2023-08-21T12:10:34;99424.06;;;28.14;56.20
20710;BME280;10516;51.518;9.864;2023-08-21T12:13:00;99423.03;;;28.93;56.46
20710;BME280;10516;51.518;9.864;2023-08-21T12:15:25;99423.03;;;28.35;56.65
20710;BME280;10516;51.518;9.864;2023-08-21T12:17:50;99433.44;;;28.41;55.59
20710;BME280;10516;51.518;9.864;2023-08-21T12:20:16;99429.59;;;28.73;55.58
20710;BME280;10516;51.518;9.864;2023-08-21T12:22:41;99434.38;;;29.23;55.17
20710;BME280;10516;51.518;9.864;2023-08-21T12:25:13;99433.06;;;29.52;54.66
20710;BME280;10516;51.518;9.864;2023-08-21T12:27:38;99424.34;;;30.04;54.07
20710;BME280;10516;51.518;9.864;2023-08-21T12:30:05;99420.38;;;30.20;52.07
20710;BME280;10516;51.518;9.864;2023-08-21T12:32:31;99416.38;;;30.18;53.39
20710;BME280;10516;51.518;9.864;2023-08-21T12:34:56;99418.97;;;30.49;53.95
20710;BME280;10516;51.518;9.864;2023-08-21T12:37:24;99421.81;;;30.14;52.14
20710;BME280;10516;51.518;9.864;2023-08-21T12:39:50;99415.09;;;29.39;53.48
20710;BME280;10516;51.518;9.864;2023-08-21T12:42:16;99410.41;;;29.24;52.88
20710;BME280;10516;51.518;9.864;2023-08-21T12:44:44;99413.47;;;28.87;53.99
20710;BME280;10516;51.518;9.864;2023-08-21T12:47:09;99407.63;;;29.74;53.29
20710;BME280;10516;51.518;9.864;2023-08-21T12:49:39;99408.22;;;29.83;53.83
20710;BME280;10516;51.518;9.864;2023-08-21T12:52:08;99409.09;;;29.72;54.49
20710;BME280;10516;51.518;9.864;2023-08-21T12:54:34;99409.91;;;29.72;53.04
20710;BME280;10516;51.518;9.864;2023-08-21T12:57:00;99405.47;;;29.48;55.41
20710;BME280;10516;51.518;9.864;2023-08-21T12:59:25;99401.66;;;29.72;54.73
20710;BME280;10516;51.518;9.864;2023-08-21T13:01:51;99402.47;;;29.92;54.94
20710;BME280;10516;51.518;9.864;2023-08-21T13:04:17;99398.69;;;30.00;54.34
20710;BME280;10516;51.518;9.864;2023-08-21T13:07:04;99395.19;;;29.64;53.57